Terminal Aerodrome Forecast
Issued by NWS Duluth, MN

Home | Current Version | Previous Version | Text Only | Print | Product List | Glossary On
Versions: 1 2 3 4 5 6 7 8 9 10 11 12 13 14 15 16 17 18 19 20 21 22 23
000
FTUS43 KDLH 250500
TAFINL
TAF
KINL 250521Z 2506/2606 05009KT P6SM OVC120
     FM251800 17004KT P6SM SCT020 SCT070
     FM260000 19007G17KT P6SM SCT020
     FM260400 19008G17KT 5SM -SN BKN020 BKN050=

USA.gov is the U.S. government's official web portal to all federal, state and local government web resources and services.